Time;durP1;ratioP1;P1;durP2;ratioP2;P2;SDS_P1;SDS_P2;PMS_P1;PMS_P2;Temp;Humidity;BMP_temperature;BMP_pressure;BME280_temperature;BME280_humidity;BME280_pressure;Samples;Min_cycle;Max_cycle;Signal;HPM_P1;HPM_P2
2023/01/13 00:00:21;;;;;;;30.97;8.47;;;8.50;99.90;;;;;;4969560;28;20840;-72
2023/01/13 00:02:47;;;;;;;32.23;8.10;;;8.50;99.90;;;;;;4973305;28;20808;-73
2023/01/13 00:05:13;;;;;;;35.77;9.00;;;8.50;99.90;;;;;;4972328;28;20512;-73
2023/01/13 00:07:39;;;;;;;33.87;7.43;;;8.50;99.90;;;;;;4970553;28;20427;-69
2023/01/13 00:10:07;;;;;;;34.53;8.60;;;8.40;99.90;;;;;;4971504;28;20418;-73
2023/01/13 00:12:33;;;;;;;33.58;8.32;;;8.30;99.90;;;;;;4971446;28;20513;-71
2023/01/13 00:14:58;;;;;;;38.88;8.88;;;8.30;99.90;;;;;;4971070;28;20873;-70
2023/01/13 00:17:24;;;;;;;40.95;9.35;;;8.20;99.90;;;;;;4972184;28;20888;-72
2023/01/13 00:19:50;;;;;;;31.10;7.82;;;8.20;99.90;;;;;;4971351;28;20517;-70
2023/01/13 00:22:16;;;;;;;28.85;8.65;;;8.10;99.90;;;;;;4967580;28;20973;-70
2023/01/13 00:24:41;;;;;;;43.08;9.55;;;8.20;99.90;;;;;;4974461;28;20421;-73
2023/01/13 00:27:07;;;;;;;40.50;8.40;;;8.20;99.90;;;;;;4964697;28;20473;-72
2023/01/13 00:29:32;;;;;;;41.42;10.30;;;8.30;99.90;;;;;;4966201;28;20573;-73
2023/01/13 00:31:58;;;;;;;41.85;9.57;;;8.10;99.90;;;;;;4971336;28;20442;-70
2023/01/13 00:34:24;;;;;;;36.10;8.48;;;8.10;99.90;;;;;;4965922;28;20450;-73
2023/01/13 00:36:50;;;;;;;39.60;8.83;;;8.10;99.90;;;;;;4968458;28;20438;-72
2023/01/13 00:39:15;;;;;;;35.78;8.30;;;7.90;99.90;;;;;;4965389;28;20993;-72
2023/01/13 00:44:25;;;;;;;42.42;9.90;;;8.00;99.90;;;;;;4965614;28;20538;-72
2023/01/13 00:46:51;;;;;;;44.70;10.43;;;8.00;99.90;;;;;;4965775;28;20445;-70
2023/01/13 00:49:16;;;;;;;40.53;8.85;;;8.50;99.90;;;;;;4963734;28;20819;-73
2023/01/13 00:51:42;;;;;;;36.50;9.50;;;7.90;99.90;;;;;;4969808;28;20489;-71
2023/01/13 00:54:07;;;;;;;34.88;8.65;;;8.10;99.90;;;;;;4969962;28;20433;-72
2023/01/13 00:56:33;;;;;;;33.33;8.00;;;8.00;99.90;;;;;;4969864;28;20430;-72
2023/01/13 00:59:00;;;;;;;40.80;10.87;;;8.00;99.90;;;;;;4971707;28;20442;-69
2023/01/13 01:01:26;;;;;;;39.25;9.30;;;8.00;99.90;;;;;;4964467;28;20503;-71
2023/01/13 01:03:53;;;;;;;33.72;8.20;;;8.00;99.90;;;;;;4966984;28;20454;-71
2023/01/13 01:06:24;;;;;;;31.83;8.82;;;7.80;99.90;;;;;;4968228;28;20432;-73
2023/01/13 01:08:51;;;;;;;40.03;9.98;;;7.90;99.90;;;;;;4963534;28;20442;-73
2023/01/13 01:11:20;;;;;;;37.40;9.13;;;7.80;99.90;;;;;;4972607;28;20432;-70
2023/01/13 01:13:46;;;;;;;38.58;9.15;;;7.90;99.90;;;;;;4972651;28;20434;-73
2023/01/13 01:16:15;;;;;;;32.22;7.63;;;7.80;99.90;;;;;;4971021;28;20426;-74
2023/01/13 01:18:43;;;;;;;38.90;10.00;;;7.80;99.90;;;;;;4970823;28;20500;-72
2023/01/13 01:21:10;;;;;;;40.67;9.32;;;8.40;99.90;;;;;;4969183;28;21109;-72
2023/01/13 01:23:37;;;;;;;41.40;10.00;;;7.90;99.90;;;;;;4968602;28;20470;-72
2023/01/13 01:26:10;;;;;;;38.75;9.23;;;7.90;99.90;;;;;;4972840;28;20456;-70
2023/01/13 01:28:36;;;;;;;41.13;9.15;;;7.80;99.90;;;;;;4972068;28;20438;-73
2023/01/13 01:31:09;;;;;;;37.20;7.60;;;6.40;99.90;;;;;;4972400;28;20452;-74
2023/01/13 01:33:35;;;;;;;44.55;10.50;;;7.80;99.90;;;;;;4972367;28;20440;-72
2023/01/13 01:36:02;;;;;;;48.03;9.25;;;7.80;99.90;;;;;;4969769;28;20430;-73
2023/01/13 01:38:28;;;;;;;42.03;9.33;;;7.80;99.90;;;;;;4963459;28;20519;-70
2023/01/13 01:40:54;;;;;;;44.42;10.18;;;7.80;99.90;;;;;;4969751;28;20921;-70
2023/01/13 01:46:06;;;;;;;33.60;7.37;;;7.90;99.90;;;;;;4565907;23;22461;-78
2023/01/13 01:48:38;;;;;;;37.65;8.43;;;7.80;99.90;;;;;;4929087;28;20508;-77
2023/01/13 01:51:08;;;;;;;38.70;7.50;;;7.80;99.90;;;;;;4925194;28;20943;-78
2023/01/13 01:53:34;;;;;;;43.45;9.52;;;9.50;99.90;;;;;;4942930;28;20460;-77
2023/01/13 01:56:00;;;;;;;38.25;8.25;;;8.80;99.90;;;;;;4933336;28;20982;-78
2023/01/13 01:58:36;;;;;;;39.73;10.20;;;7.90;99.90;;;;;;4935345;28;20508;-79
2023/01/13 02:01:02;;;;;;;36.35;8.88;;;7.90;99.90;;;;;;4928662;28;21247;-78
2023/01/13 02:03:28;;;;;;;42.45;8.10;;;8.00;99.90;;;;;;4934545;29;20891;-78
2023/01/13 02:05:54;;;;;;;38.90;9.85;;;7.90;99.90;;;;;;4937023;28;20440;-77
2023/01/13 02:08:20;;;;;;;36.05;9.48;;;7.90;99.90;;;;;;4933334;28;20442;-79
2023/01/13 02:10:52;;;;;;;38.40;9.43;;;7.90;99.90;;;;;;4934186;28;20540;-79
2023/01/13 02:13:20;;;;;;;34.67;8.30;;;8.70;99.90;;;;;;4931053;28;21583;-78
2023/01/13 02:15:52;;;;;;;43.65;8.43;;;8.00;99.90;;;;;;4931573;28;20437;-78
2023/01/13 02:18:21;;;;;;;46.08;9.48;;;8.70;99.90;;;;;;4933585;28;20500;-78
2023/01/13 02:20:59;;;;;;;34.75;8.85;;;8.10;99.90;;;;;;4941080;28;20445;-79
2023/01/13 02:27:11;;;;;;;47.35;9.68;;;8.10;99.90;;;;;;4931605;28;20441;-79
2023/01/13 02:32:35;;;;;;;42.88;9.35;;;8.10;99.90;;;;;;4950287;28;20441;-77
2023/01/13 02:35:07;;;;;;;39.65;9.90;;;9.10;99.90;;;;;;4942390;28;20847;-79
2023/01/13 02:37:36;;;;;;;45.13;10.10;;;8.20;99.90;;;;;;4933503;28;20438;-79
2023/01/13 02:40:08;;;;;;;38.15;9.40;;;8.00;99.90;;;;;;4934590;28;20462;-79
2023/01/13 02:46:01;;;;;;;44.88;10.60;;;8.10;99.90;;;;;;4933703;28;20437;-79
2023/01/13 02:48:30;;;;;;;33.97;7.63;;;8.20;99.90;;;;;;4924611;28;20453;-78
2023/01/13 02:51:02;;;;;;;38.83;10.60;;;8.30;99.90;;;;;;4932923;28;21184;-79
2023/01/13 02:53:34;;;;;;;29.95;7.22;;;9.50;99.90;;;;;;4933192;28;20425;-78
2023/01/13 02:56:03;;;;;;;35.73;7.60;;;8.30;99.90;;;;;;4933270;29;20563;-78
2023/01/13 02:58:31;;;;;;;37.63;9.05;;;8.70;99.90;;;;;;4933013;28;20457;-79
2023/01/13 03:00:57;;;;;;;37.53;9.70;;;8.30;99.90;;;;;;4936995;28;20425;-78
2023/01/13 03:03:23;;;;;;;34.10;7.32;;;8.30;99.90;;;;;;4938478;28;20452;-79
2023/01/13 03:05:52;;;;;;;40.38;9.35;;;9.10;99.90;;;;;;4930739;28;20438;-78
2023/01/13 03:08:46;;;;;;;31.45;8.00;;;8.20;99.90;;;;;;4943551;28;20550;-77
2023/01/13 03:11:15;;;;;;;32.75;7.88;;;8.30;99.90;;;;;;4933548;28;20468;-78
2023/01/13 03:14:04;;;;;;;39.80;8.30;;;9.50;99.90;;;;;;4933416;28;20496;-78
2023/01/13 03:16:55;;;;;;;35.63;7.30;;;8.10;99.90;;;;;;4932979;28;20812;-81
2023/01/13 03:19:28;;;;;;;33.38;7.63;;;8.20;99.90;;;;;;4931896;28;20434;-77
2023/01/13 03:22:20;;;;;;;35.38;7.05;;;8.30;99.90;;;;;;4932603;28;20437;-79
2023/01/13 03:25:07;;;;;;;31.98;8.13;;;8.20;99.90;;;;;;4930422;28;20800;-79
2023/01/13 03:27:49;;;;;;;33.47;8.10;;;8.30;99.90;;;;;;4939481;28;20446;-79
2023/01/13 03:30:26;;;;;;;33.10;7.35;;;8.30;99.90;;;;;;4933367;28;20429;-80
2023/01/13 03:32:57;;;;;;;44.83;9.70;;;8.30;99.90;;;;;;4948239;28;20958;-80
2023/01/13 03:35:29;;;;;;;31.75;8.80;;;8.30;99.90;;;;;;4924035;28;20440;-80
2023/01/13 03:38:15;;;;;;;30.05;8.70;;;8.30;99.90;;;;;;4933588;29;20442;-80
2023/01/13 03:40:48;;;;;;;29.75;7.18;;;8.30;99.90;;;;;;4924729;28;20445;-79
2023/01/13 03:46:20;;;;;;;27.80;7.07;;;8.90;99.90;;;;;;4926225;28;20494;-79
2023/01/13 03:48:51;;;;;;;33.63;8.68;;;9.30;99.90;;;;;;4936738;28;20445;-78
2023/01/13 03:51:22;;;;;;;42.13;10.57;;;8.80;99.90;;;;;;4931440;28;20430;-78
2023/01/13 03:53:57;;;;;;;33.25;6.93;;;8.20;99.90;;;;;;4917570;29;20438;-77
2023/01/13 03:56:32;;;;;;;32.92;7.28;;;8.30;99.90;;;;;;4934399;28;21016;-77
2023/01/13 03:59:03;;;;;;;31.52;8.43;;;8.10;99.90;;;;;;4937047;28;20530;-78
2023/01/13 04:01:42;;;;;;;36.75;7.57;;;9.00;99.90;;;;;;4931360;28;20418;-79
2023/01/13 04:04:20;;;;;;;36.00;8.38;;;9.00;99.90;;;;;;4945723;28;20967;-78
2023/01/13 04:06:52;;;;;;;37.40;8.77;;;8.00;99.90;;;;;;4947035;28;20969;-80
2023/01/13 04:09:43;;;;;;;38.80;8.35;;;9.10;99.90;;;;;;4939371;28;20444;-77
2023/01/13 04:12:17;;;;;;;38.75;8.65;;;7.90;99.90;;;;;;4936211;28;20469;-79
2023/01/13 04:14:45;;;;;;;34.75;8.48;;;7.90;99.90;;;;;;4938606;28;20434;-78
2023/01/13 04:17:11;;;;;;;32.13;9.13;;;8.00;99.90;;;;;;4928674;28;20840;-79
2023/01/13 04:19:36;;;;;;;42.40;8.82;;;8.00;99.90;;;;;;4933610;28;20433;-80
2023/01/13 04:22:02;;;;;;;34.28;9.30;;;8.00;99.90;;;;;;4936654;28;20898;-77
2023/01/13 04:24:28;;;;;;;45.08;8.73;;;9.50;99.90;;;;;;4933144;28;20518;-78
2023/01/13 04:26:55;;;;;;;39.08;8.82;;;8.50;99.90;;;;;;4941046;28;20438;-79
2023/01/13 04:29:21;;;;;;;31.63;7.28;;;8.10;99.90;;;;;;4936591;28;21277;-77
2023/01/13 04:31:47;;;;;;;36.28;8.73;;;8.20;99.90;;;;;;4931750;28;20429;-77
2023/01/13 04:34:12;;;;;;;29.33;6.87;;;9.30;99.90;;;;;;4934530;28;20482;-78
2023/01/13 04:36:38;;;;;;;33.93;8.80;;;8.20;99.90;;;;;;4933432;28;20444;-81
2023/01/13 04:39:04;;;;;;;33.33;7.97;;;8.60;99.90;;;;;;4915393;28;20428;-77
2023/01/13 04:41:56;;;;;;;37.47;8.87;;;9.20;99.90;;;;;;4927316;28;20871;-79
2023/01/13 04:44:18;;;;;;;33.63;7.57;;;8.30;99.90;;;;;;4928348;28;20466;-77
2023/01/13 04:46:43;;;;;;;32.35;8.10;;;10.00;99.90;;;;;;4925462;28;20528;-80
2023/01/13 04:49:09;;;;;;;34.03;8.73;;;8.30;99.90;;;;;;4927146;28;21287;-78
2023/01/13 04:51:35;;;;;;;38.65;8.48;;;8.40;99.90;;;;;;4926881;28;20438;-78
2023/01/13 04:54:01;;;;;;;39.63;9.73;;;8.40;99.90;;;;;;4926777;28;20429;-78
2023/01/13 04:56:26;;;;;;;29.80;7.50;;;8.80;99.90;;;;;;4929284;28;20805;-79
2023/01/13 04:58:52;;;;;;;30.92;7.45;;;8.40;99.90;;;;;;4941240;28;20439;-78
2023/01/13 05:01:18;;;;;;;30.20;7.20;;;8.50;99.90;;;;;;4928646;28;20456;-79
2023/01/13 05:03:43;;;;;;;32.65;7.85;;;8.30;99.90;;;;;;4933708;29;20428;-80
2023/01/13 05:06:09;;;;;;;29.70;6.15;;;8.40;99.90;;;;;;4929006;28;20570;-78
2023/01/13 05:08:34;;;;;;;32.97;9.32;;;8.40;99.90;;;;;;4943610;28;20499;-79
2023/01/13 05:11:00;;;;;;;26.73;6.10;;;8.40;99.90;;;;;;4931728;28;20426;-79
2023/01/13 05:19:07;;;;;;;26.42;5.93;;;8.40;99.90;;;;;;4930010;28;20481;-79
2023/01/13 05:27:01;;;;;;;31.98;7.82;;;8.50;99.90;;;;;;4931294;28;20444;-77
2023/01/13 05:29:26;;;;;;;23.80;7.13;;;8.40;99.90;;;;;;4945974;28;20443;-79
2023/01/13 05:31:52;;;;;;;23.27;6.25;;;8.50;99.90;;;;;;4927284;28;20429;-79
2023/01/13 05:34:18;;;;;;;30.50;7.88;;;8.50;99.90;;;;;;4933216;28;20442;-80
2023/01/13 05:36:43;;;;;;;31.67;7.85;;;8.50;99.90;;;;;;4928574;28;20528;-78
2023/01/13 05:39:09;;;;;;;26.45;6.78;;;8.50;99.90;;;;;;4933683;28;20444;-80
2023/01/13 05:44:19;;;;;;;27.30;6.15;;;8.50;99.90;;;;;;4932526;28;20921;-78
2023/01/13 05:46:44;;;;;;;21.77;4.85;;;9.40;99.90;;;;;;4928840;29;20549;-79
2023/01/13 05:49:10;;;;;;;24.25;5.60;;;8.50;99.90;;;;;;4931774;28;20428;-79
2023/01/13 05:51:36;;;;;;;29.05;5.95;;;8.60;99.90;;;;;;4932019;28;20516;-78
2023/01/13 05:54:01;;;;;;;27.42;6.57;;;8.50;99.90;;;;;;4929614;28;20526;-80
2023/01/13 05:56:27;;;;;;;24.83;6.80;;;8.50;99.90;;;;;;4939304;28;20442;-80
2023/01/13 05:58:52;;;;;;;24.23;6.43;;;8.50;99.90;;;;;;4931151;28;20441;-78
2023/01/13 06:01:18;;;;;;;31.30;6.73;;;9.80;99.90;;;;;;4929199;28;20433;-79
2023/01/13 06:03:44;;;;;;;23.13;5.83;;;9.40;99.90;;;;;;4931409;28;20452;-78
2023/01/13 06:06:09;;;;;;;24.42;5.68;;;8.40;99.90;;;;;;4944275;28;21447;-78
2023/01/13 06:08:35;;;;;;;21.45;5.88;;;9.30;99.90;;;;;;4933099;28;20472;-78
2023/01/13 06:11:01;;;;;;;25.35;5.90;;;8.50;99.90;;;;;;4936672;28;20429;-79
2023/01/13 06:13:26;;;;;;;26.10;6.78;;;8.60;99.90;;;;;;4943661;28;20555;-79
2023/01/13 06:15:57;;;;;;;21.02;5.25;;;8.50;99.90;;;;;;4937160;28;20429;-77
2023/01/13 06:18:23;;;;;;;22.25;5.82;;;8.80;99.90;;;;;;4929709;28;20434;-79
2023/01/13 06:20:48;;;;;;;29.27;5.75;;;8.40;99.90;;;;;;4932280;28;20448;-78
2023/01/13 06:23:14;;;;;;;30.83;6.63;;;8.40;99.90;;;;;;4921316;29;20441;-78
2023/01/13 06:26:04;;;;;;;32.93;7.83;;;8.30;99.90;;;;;;4935812;28;20429;-78
2023/01/13 06:28:32;;;;;;;26.42;5.80;;;8.20;99.90;;;;;;4935543;28;20453;-79
2023/01/13 06:31:00;;;;;;;29.55;6.13;;;8.30;99.90;;;;;;4928379;28;20442;-78
2023/01/13 06:33:31;;;;;;;28.65;6.43;;;9.10;99.90;;;;;;4936280;28;20441;-79
2023/01/13 06:36:01;;;;;;;26.80;5.28;;;8.40;99.90;;;;;;4931320;28;21000;-78
2023/01/13 06:38:30;;;;;;;27.63;7.50;;;8.00;99.90;;;;;;4941465;28;20512;-78
2023/01/13 06:40:56;;;;;;;23.57;4.70;;;8.20;99.90;;;;;;4934594;28;20444;-77
2023/01/13 06:43:22;;;;;;;27.83;5.17;;;8.00;99.90;;;;;;4948987;28;20437;-80
2023/01/13 06:45:51;;;;;;;31.27;7.40;;;9.70;99.90;;;;;;4928282;28;20498;-79
2023/01/13 06:48:20;;;;;;;26.65;5.05;;;7.90;99.90;;;;;;4929413;28;20886;-79
2023/01/13 06:50:46;;;;;;;26.42;5.65;;;7.80;99.90;;;;;;4935322;28;20545;-79
2023/01/13 06:53:12;;;;;;;24.35;5.43;;;8.30;99.90;;;;;;4930506;28;20445;-80
2023/01/13 06:55:38;;;;;;;28.13;6.07;;;9.60;99.90;;;;;;4935932;29;20429;-78
2023/01/13 06:58:03;;;;;;;30.23;7.35;;;7.60;99.90;;;;;;4932886;28;20475;-79
2023/01/13 07:00:31;;;;;;;25.45;7.03;;;7.50;99.90;;;;;;4936221;28;20429;-78
2023/01/13 07:03:14;;;;;;;30.63;6.15;;;7.40;99.90;;;;;;4932072;28;20535;-79
2023/01/13 07:05:41;;;;;;;32.42;5.85;;;7.40;99.90;;;;;;4944215;28;20428;-78
2023/01/13 07:08:08;;;;;;;18.80;4.63;;;8.70;99.90;;;;;;4934099;28;20445;-77
2023/01/13 07:10:35;;;;;;;25.63;6.45;;;7.20;99.90;;;;;;4934255;28;20558;-79
2023/01/13 07:15:59;;;;;;;30.30;6.35;;;7.70;99.90;;;;;;4931431;28;20512;-82
2023/01/13 07:18:27;;;;;;;25.15;4.70;;;8.80;99.90;;;;;;4931491;28;20452;-80
2023/01/13 07:20:57;;;;;;;26.00;5.00;;;7.30;99.90;;;;;;4930490;28;21496;-81
2023/01/13 07:23:26;;;;;;;27.73;7.90;;;7.20;99.90;;;;;;4933580;28;20932;-82
2023/01/13 07:25:57;;;;;;;28.23;6.35;;;8.50;99.90;;;;;;4933697;28;20960;-79
2023/01/13 07:28:24;;;;;;;27.27;5.40;;;7.10;99.90;;;;;;4925084;28;20494;-81
2023/01/13 07:30:50;;;;;;;29.88;8.88;;;7.20;99.90;;;;;;4938255;28;20435;-79
2023/01/13 07:33:17;;;;;;;27.90;5.40;;;7.20;99.90;;;;;;4929719;28;20434;-80
2023/01/13 07:35:43;;;;;;;30.50;6.10;;;8.70;99.90;;;;;;4934960;28;20455;-79
2023/01/13 07:38:09;;;;;;;28.85;6.47;;;7.10;99.90;;;;;;4932061;28;20489;-80
2023/01/13 07:40:35;;;;;;;28.33;5.88;;;7.10;99.90;;;;;;4933355;28;20492;-78
2023/01/13 07:45:45;;;;;;;30.42;6.45;;;7.10;99.90;;;;;;4931175;28;22066;-80
2023/01/13 07:48:11;;;;;;;31.02;8.00;;;9.40;99.90;;;;;;4934522;28;21132;-79
2023/01/13 07:50:37;;;;;;;27.48;6.55;;;7.20;99.90;;;;;;4933451;28;20836;-80
2023/01/13 07:53:03;;;;;;;26.17;6.28;;;7.40;99.90;;;;;;4930178;28;20536;-80
2023/01/13 07:55:28;;;;;;;31.00;6.30;;;7.30;99.90;;;;;;4934059;28;20426;-79
2023/01/13 07:57:54;;;;;;;31.40;8.18;;;8.80;99.90;;;;;;4937902;28;21194;-80
2023/01/13 08:00:20;;;;;;;29.58;6.72;;;7.60;99.90;;;;;;4916229;29;20433;-79
2023/01/13 08:02:46;;;;;;;25.88;6.78;;;7.50;99.90;;;;;;4931428;28;20509;-79
2023/01/13 08:05:12;;;;;;;25.57;6.30;;;7.40;99.90;;;;;;4932301;28;20430;-80
2023/01/13 08:07:39;;;;;;;24.00;6.10;;;7.50;99.90;;;;;;4930819;28;20449;-79
2023/01/13 08:10:05;;;;;;;32.65;8.30;;;7.50;99.90;;;;;;4934579;28;21297;-80
2023/01/13 08:15:15;;;;;;;31.48;7.05;;;7.60;99.90;;;;;;4928266;28;20438;-77
2023/01/13 08:17:40;;;;;;;24.38;5.90;;;7.70;99.90;;;;;;4934472;29;20529;-83
2023/01/13 08:20:08;;;;;;;28.97;7.00;;;7.60;99.90;;;;;;4931033;28;20520;-78
2023/01/13 08:22:34;;;;;;;25.92;5.65;;;7.80;99.90;;;;;;4933096;28;20437;-81
2023/01/13 08:24:59;;;;;;;34.53;8.07;;;7.80;99.90;;;;;;4931282;28;20445;-78
2023/01/13 08:27:25;;;;;;;28.03;6.63;;;7.70;99.90;;;;;;4932063;28;20569;-79
2023/01/13 08:29:51;;;;;;;37.00;6.50;;;7.70;99.90;;;;;;4934047;28;20442;-78
2023/01/13 08:32:16;;;;;;;31.13;7.43;;;7.80;99.90;;;;;;4936553;28;21084;-80
2023/01/13 08:34:42;;;;;;;25.85;6.95;;;8.00;99.90;;;;;;4933207;28;20438;-77
2023/01/13 08:37:08;;;;;;;26.92;6.47;;;7.80;99.90;;;;;;4934263;28;20441;-79
2023/01/13 08:39:34;;;;;;;33.92;6.90;;;7.90;99.90;;;;;;4933730;28;20865;-80
2023/01/13 08:42:01;;;;;;;28.67;7.10;;;7.90;99.90;;;;;;4933614;28;20755;-80
2023/01/13 08:44:29;;;;;;;27.67;6.70;;;8.10;99.90;;;;;;4929542;28;21075;-80
2023/01/13 08:46:55;;;;;;;23.35;5.43;;;7.80;99.90;;;;;;4929564;28;20802;-80
2023/01/13 08:49:22;;;;;;;26.83;7.20;;;8.00;99.90;;;;;;4938202;28;20437;-81
2023/01/13 08:51:48;;;;;;;29.33;6.73;;;7.90;99.90;;;;;;4937979;28;20513;-78
2023/01/13 08:54:15;;;;;;;25.90;7.70;;;8.60;99.90;;;;;;4931512;28;20853;-78
2023/01/13 08:56:42;;;;;;;29.38;6.15;;;7.90;99.90;;;;;;4927797;28;20430;-83
2023/01/13 08:59:11;;;;;;;34.83;8.95;;;7.80;99.90;;;;;;4934237;28;20928;-80
2023/01/13 09:01:38;;;;;;;27.05;5.45;;;7.60;99.90;;;;;;4951180;28;20502;-79
2023/01/13 09:04:04;;;;;;;22.52;5.60;;;7.60;99.90;;;;;;4935912;28;20441;-81
2023/01/13 09:06:30;;;;;;;21.30;5.13;;;7.40;99.90;;;;;;4928823;28;20485;-80
2023/01/13 09:08:56;;;;;;;27.20;5.60;;;7.20;99.90;;;;;;4931557;28;20443;-80
2023/01/13 09:14:22;;;;;;;24.03;5.60;;;7.40;99.90;;;;;;4933852;28;20468;-79
2023/01/13 09:16:47;;;;;;;30.83;5.77;;;7.40;99.90;;;;;;4929321;28;20467;-82
2023/01/13 09:19:13;;;;;;;28.23;5.95;;;7.30;99.90;;;;;;4937172;28;20445;-83
2023/01/13 09:21:39;;;;;;;27.35;6.25;;;7.50;99.90;;;;;;4931454;28;20429;-81
2023/01/13 09:24:05;;;;;;;34.87;6.77;;;7.50;99.90;;;;;;4933967;28;21238;-78
2023/01/13 09:26:30;;;;;;;31.90;7.25;;;7.40;99.90;;;;;;4934663;28;20508;-81
2023/01/13 09:28:56;;;;;;;31.67;7.03;;;8.60;99.90;;;;;;4934813;28;20488;-78
2023/01/13 09:31:22;;;;;;;23.10;7.03;;;7.30;99.90;;;;;;4936141;28;20430;-79
2023/01/13 09:36:31;;;;;;;25.70;6.70;;;7.20;99.90;;;;;;4930725;28;20434;-81
2023/01/13 09:38:57;;;;;;;28.52;6.65;;;7.20;99.90;;;;;;4928614;28;20468;-81
2023/01/13 09:44:17;;;;;;;26.63;6.60;;;9.00;99.90;;;;;;4928346;28;20516;-80
2023/01/13 09:46:50;;;;;;;32.80;6.50;;;7.50;99.90;;;;;;4928151;28;20501;-79
2023/01/13 09:49:21;;;;;;;30.90;6.75;;;7.70;99.90;;;;;;4931965;28;20920;-80
2023/01/13 09:52:10;;;;;;;24.97;6.47;;;7.40;99.90;;;;;;4935856;28;20535;-79
2023/01/13 09:54:42;;;;;;;31.13;6.22;;;8.00;99.90;;;;;;4924375;28;20948;-79
2023/01/13 09:57:15;;;;;;;34.38;8.07;;;7.80;99.90;;;;;;4930372;28;20825;-80
2023/01/13 09:59:41;;;;;;;30.90;6.15;;;7.50;99.90;;;;;;4922024;28;20876;-81
2023/01/13 10:02:10;;;;;;;28.50;6.80;;;7.50;99.90;;;;;;4927630;28;20445;-77
2023/01/13 10:04:35;;;;;;;29.50;7.05;;;7.40;99.90;;;;;;4932385;28;20458;-79
2023/01/13 10:07:04;;;;;;;21.10;4.80;;;7.30;99.90;;;;;;4932646;28;20856;-75
2023/01/13 10:09:48;;;;;;;24.33;5.80;;;7.50;99.90;;;;;;4940521;28;20417;-78
2023/01/13 10:15:14;;;;;;;25.77;5.63;;;7.90;99.90;;;;;;4928809;28;20429;-77
2023/01/13 10:18:06;;;;;;;25.67;5.75;;;7.60;99.90;;;;;;4940543;28;20450;-78
2023/01/13 10:21:02;;;;;;;22.08;5.38;;;7.70;99.90;;;;;;4932879;28;20442;-80
2023/01/13 10:23:55;;;;;;;24.55;5.68;;;8.70;99.90;;;;;;4913942;28;20445;-82
2023/01/13 10:26:33;;;;;;;23.38;5.57;;;8.70;99.90;;;;;;4941155;28;20448;-80
2023/01/13 10:28:59;;;;;;;22.52;4.68;;;7.60;99.90;;;;;;4935661;28;20467;-79
2023/01/13 10:31:25;;;;;;;21.02;5.50;;;7.80;99.90;;;;;;4933977;28;20440;-79
2023/01/13 10:33:58;;;;;;;27.38;5.55;;;7.80;99.90;;;;;;4936553;28;20741;-77
2023/01/13 10:36:24;;;;;;;24.65;5.47;;;7.80;99.90;;;;;;4932497;28;20437;-81
2023/01/13 10:38:50;;;;;;;24.05;7.00;;;9.70;99.90;;;;;;4933757;28;20445;-78
2023/01/13 10:41:18;;;;;;;29.70;6.40;;;8.30;99.90;;;;;;4934547;28;20437;-78
2023/01/13 10:44:03;;;;;;;22.08;5.07;;;8.00;99.90;;;;;;4927716;28;20442;-78
2023/01/13 10:46:32;;;;;;;20.23;4.60;;;7.70;99.90;;;;;;4934254;29;21418;-79
2023/01/13 10:49:21;;;;;;;23.33;5.53;;;8.50;99.90;;;;;;4948698;28;20961;-77
2023/01/13 10:51:47;;;;;;;26.33;5.18;;;7.70;99.90;;;;;;4933778;28;20520;-80
2023/01/13 10:54:21;;;;;;;21.38;4.65;;;7.80;99.90;;;;;;4931144;28;20473;-79
2023/01/13 10:56:47;;;;;;;24.05;5.78;;;9.10;99.90;;;;;;4936072;28;20913;-79
2023/01/13 11:02:36;;;;;;;20.13;4.85;;;8.20;99.90;;;;;;4948399;28;20436;-79
2023/01/13 11:05:22;;;;;;;18.23;4.37;;;9.80;99.90;;;;;;4928985;28;20542;-78
2023/01/13 11:07:51;;;;;;;21.58;4.82;;;7.90;99.90;;;;;;4950283;28;20444;-78
2023/01/13 11:10:19;;;;;;;20.83;5.22;;;8.40;99.90;;;;;;4955103;28;20436;-79
2023/01/13 11:13:17;;;;;;;20.15;5.80;;;8.00;99.90;;;;;;4950026;28;20498;-81
2023/01/13 11:15:58;;;;;;;25.38;6.38;;;8.10;99.90;;;;;;4950520;28;20511;-76
2023/01/13 11:18:29;;;;;;;19.92;4.45;;;8.00;99.90;;;;;;4950659;28;20514;-80
2023/01/13 11:20:57;;;;;;;17.40;4.93;;;8.20;99.90;;;;;;4957062;28;21001;-77
2023/01/13 11:23:47;;;;;;;22.85;4.60;;;8.20;99.90;;;;;;4953952;28;20432;-78
2023/01/13 11:26:35;;;;;;;22.27;5.30;;;8.80;99.90;;;;;;4951306;28;20460;-77
2023/01/13 11:29:10;;;;;;;19.45;4.22;;;8.60;99.90;;;;;;4951370;28;20495;-78
2023/01/13 11:31:41;;;;;;;17.38;3.45;;;8.30;99.90;;;;;;4952000;28;20984;-79
2023/01/13 11:34:51;;;;;;;17.00;4.57;;;8.40;99.90;;;;;;4950007;28;20464;-78
2023/01/13 11:37:29;;;;;;;16.02;4.38;;;8.40;99.90;;;;;;4935324;28;20503;-78
2023/01/13 11:40:24;;;;;;;21.95;5.63;;;8.40;99.90;;;;;;4952867;28;20439;-78
2023/01/13 11:43:00;;;;;;;18.63;5.45;;;8.50;99.90;;;;;;4949261;28;20447;-78
2023/01/13 11:45:35;;;;;;;20.90;4.47;;;8.40;99.90;;;;;;4948378;28;20942;-80
2023/01/13 11:48:01;;;;;;;20.77;5.05;;;8.40;99.90;;;;;;4937410;28;20444;-78
2023/01/13 11:50:49;;;;;;;16.63;4.22;;;8.90;99.90;;;;;;4951902;28;20447;-80
2023/01/13 11:53:18;;;;;;;22.70;6.60;;;8.40;99.90;;;;;;4952569;28;20435;-79
2023/01/13 11:56:08;;;;;;;16.23;3.97;;;8.30;99.90;;;;;;4947234;28;20778;-79
2023/01/13 11:59:00;;;;;;;20.50;4.43;;;8.40;99.90;;;;;;4954944;28;20442;-79
2023/01/13 12:01:37;;;;;;;16.53;4.10;;;8.50;99.90;;;;;;4950519;28;20442;-80
2023/01/13 12:04:15;;;;;;;12.73;3.08;;;8.50;99.90;;;;;;4952923;28;20497;-81
2023/01/13 12:06:43;;;;;;;15.77;4.10;;;8.50;99.90;;;;;;4949123;28;20428;-77
2023/01/13 12:09:41;;;;;;;13.55;3.50;;;8.70;99.90;;;;;;4946592;28;20454;-82
2023/01/13 12:12:31;;;;;;;18.33;4.50;;;8.70;99.90;;;;;;4948313;28;20440;-79
2023/01/13 12:15:26;;;;;;;13.80;3.33;;;8.70;99.90;;;;;;4951072;28;20954;-78
2023/01/13 12:18:36;;;;;;;14.50;2.97;;;8.80;99.90;;;;;;4913934;28;20993;-76
2023/01/13 12:21:18;;;;;;;21.25;4.47;;;8.90;99.90;;;;;;4946460;28;20527;-78
2023/01/13 12:24:12;;;;;;;14.90;3.35;;;8.90;99.90;;;;;;4946466;28;20437;-78
2023/01/13 12:26:42;;;;;;;16.52;4.30;;;8.80;99.90;;;;;;4941703;28;20448;-77
2023/01/13 12:29:18;;;;;;;15.38;3.70;;;8.70;99.90;;;;;;4950861;28;20429;-76
2023/01/13 12:31:47;;;;;;;18.35;4.72;;;8.80;99.90;;;;;;4945027;28;20430;-77
2023/01/13 12:34:32;;;;;;;21.25;4.70;;;8.80;99.90;;;;;;4938912;28;20433;-76
2023/01/13 12:37:16;;;;;;;18.60;4.15;;;8.90;99.90;;;;;;4949028;28;20926;-79
2023/01/13 12:39:50;;;;;;;14.77;3.75;;;8.80;99.90;;;;;;4947194;28;20436;-76
2023/01/13 12:45:30;;;;;;;16.00;3.60;;;8.80;99.90;;;;;;4949546;28;20838;-79
2023/01/13 12:47:56;;;;;;;16.10;4.25;;;9.40;99.90;;;;;;4947526;28;21356;-76
2023/01/13 12:50:25;;;;;;;13.63;3.30;;;9.90;99.90;;;;;;4952731;28;20507;-78
2023/01/13 12:52:52;;;;;;;14.20;3.42;;;10.00;99.90;;;;;;4952324;28;20440;-78
2023/01/13 12:55:38;;;;;;;15.30;3.17;;;8.80;99.90;;;;;;4946525;28;20960;-77
2023/01/13 12:58:09;;;;;;;19.40;4.10;;;8.70;99.90;;;;;;4945379;28;20524;-76
2023/01/13 13:00:38;;;;;;;16.75;3.20;;;8.70;99.90;;;;;;4953730;28;20436;-79
2023/01/13 13:03:08;;;;;;;18.30;3.83;;;9.50;99.90;;;;;;4952356;28;20439;-77
2023/01/13 13:06:11;;;;;;;16.70;3.28;;;8.70;99.90;;;;;;4953334;28;20432;-76
2023/01/13 13:08:45;;;;;;;19.63;3.65;;;8.80;99.90;;;;;;4947038;28;21015;-76
2023/01/13 13:14:03;;;;;;;13.30;2.92;;;9.60;99.90;;;;;;4952712;28;20443;-78
2023/01/13 13:16:29;;;;;;;14.30;3.28;;;8.80;99.90;;;;;;4949592;28;20879;-77
2023/01/13 13:19:16;;;;;;;15.70;3.33;;;9.70;99.90;;;;;;4954863;28;20455;-77
2023/01/13 13:22:06;;;;;;;15.18;3.40;;;8.80;99.90;;;;;;4953953;28;20428;-79
2023/01/13 13:24:32;;;;;;;18.67;4.13;;;7.70;99.90;;;;;;4952428;28;21024;-76
2023/01/13 13:27:21;;;;;;;15.18;4.20;;;10.20;99.90;;;;;;4953690;28;20527;-78
2023/01/13 13:30:16;;;;;;;11.15;3.78;;;8.80;99.90;;;;;;4953428;28;20962;-77
2023/01/13 13:33:00;;;;;;;15.45;3.40;;;8.80;99.90;;;;;;4925504;28;20471;-78
2023/01/13 13:35:54;;;;;;;16.52;3.88;;;8.80;99.90;;;;;;4953677;28;20523;-77
2023/01/13 13:47:14;;;;;;;16.67;4.43;;;9.40;99.90;;;;;;4941739;28;20538;-76
2023/01/13 13:49:51;;;;;;;11.80;2.87;;;8.80;99.90;;;;;;4957851;28;20470;-79
2023/01/13 13:52:25;;;;;;;10.82;2.95;;;8.80;99.90;;;;;;4949894;28;20442;-78
2023/01/13 13:55:04;;;;;;;12.73;3.70;;;8.80;99.90;;;;;;4954875;28;20467;-77
2023/01/13 13:57:36;;;;;;;11.70;3.13;;;8.80;99.90;;;;;;4956915;28;20428;-78
2023/01/13 14:00:12;;;;;;;15.98;3.35;;;8.80;99.90;;;;;;4956716;28;20435;-78
2023/01/13 14:02:38;;;;;;;13.57;4.15;;;8.80;99.90;;;;;;4955986;28;20810;-78
2023/01/13 14:05:18;;;;;;;11.25;2.95;;;8.70;99.90;;;;;;4954020;28;20436;-79
2023/01/13 14:07:56;;;;;;;16.58;3.65;;;8.80;99.90;;;;;;4953239;28;20444;-77
2023/01/13 14:10:28;;;;;;;19.90;4.23;;;8.70;99.90;;;;;;4953735;28;20910;-76
2023/01/13 14:12:54;;;;;;;13.00;3.60;;;9.10;99.90;;;;;;4955553;28;20455;-78
2023/01/13 14:15:32;;;;;;;16.53;3.37;;;8.70;99.90;;;;;;4954955;28;20815;-78